createdAt,value
2023-05-12T00:01:27.197Z,4.53
2023-05-12T00:03:54.135Z,4.87
2023-05-12T00:06:21.176Z,4.60
2023-05-12T00:08:47.715Z,4.53
2023-05-12T00:11:14.234Z,4.50
2023-05-12T00:13:40.909Z,5.17
2023-05-12T00:16:07.543Z,4.17
2023-05-12T00:18:34.220Z,4.70
2023-05-12T00:21:01.118Z,4.53
2023-05-12T00:23:27.586Z,4.33
2023-05-12T00:25:54.115Z,5.03
2023-05-12T00:28:20.849Z,4.30
2023-05-12T00:30:47.364Z,4.53
2023-05-12T00:33:13.884Z,4.70
2023-05-12T00:35:40.462Z,5.33
2023-05-12T00:38:06.983Z,4.13
2023-05-12T00:40:33.963Z,4.67
2023-05-12T00:43:00.439Z,4.60
2023-05-12T00:45:29.393Z,5.10
2023-05-12T00:47:57.141Z,4.37
2023-05-12T00:50:24.137Z,4.57
2023-05-12T00:52:51.786Z,4.67
2023-05-12T00:55:18.868Z,5.10
2023-05-12T00:57:45.507Z,5.07
2023-05-12T01:00:13.055Z,4.80
2023-05-12T01:02:42.171Z,5.13
2023-05-12T01:05:09.984Z,5.00
2023-05-12T01:07:39.188Z,4.60
2023-05-12T01:10:18.881Z,4.67
2023-05-12T01:12:45.990Z,4.87
2023-05-12T01:15:13.101Z,4.80
2023-05-12T01:17:47.749Z,4.37
2023-05-12T01:20:17.438Z,4.80
2023-05-12T01:22:46.390Z,4.67
2023-05-12T01:25:14.792Z,4.60
2023-05-12T01:27:43.119Z,5.03
2023-05-12T01:30:13.309Z,5.07
2023-05-12T01:32:40.679Z,5.20
2023-05-12T01:35:07.988Z,4.70
2023-05-12T01:37:36.260Z,5.47
2023-05-12T01:40:05.033Z,5.20
2023-05-12T01:42:32.006Z,5.03
2023-05-12T01:44:58.867Z,5.37
2023-05-12T01:47:26.633Z,4.97
2023-05-12T01:50:06.763Z,5.40
2023-05-12T01:52:33.262Z,4.83
2023-05-12T01:54:59.763Z,5.30
2023-05-12T01:57:29.276Z,5.17
2023-05-12T01:59:58.660Z,5.50
2023-05-12T02:02:25.270Z,5.30
2023-05-12T02:04:51.996Z,5.77
2023-05-12T02:07:18.851Z,5.83
2023-05-12T02:09:46.141Z,4.80
2023-05-12T02:12:13.402Z,5.00
2023-05-12T02:14:39.890Z,5.10
2023-05-12T02:17:06.393Z,5.50
2023-05-12T02:19:32.956Z,6.13
2023-05-12T02:21:59.512Z,5.10
2023-05-12T02:24:26.236Z,6.03
2023-05-12T02:26:52.737Z,5.23
2023-05-12T02:29:19.455Z,6.00
2023-05-12T02:31:46.096Z,5.70
2023-05-12T02:34:15.980Z,5.83
2023-05-12T02:36:42.492Z,5.63
2023-05-12T02:39:09.038Z,6.13
2023-05-12T02:41:35.796Z,6.00
2023-05-12T02:44:02.313Z,6.30
2023-05-12T02:46:28.872Z,5.70
2023-05-12T02:48:56.069Z,5.37
2023-05-12T02:51:22.937Z,5.80
2023-05-12T02:53:49.480Z,5.70
2023-05-12T02:56:17.761Z,6.17
2023-05-12T02:58:44.316Z,6.23
2023-05-12T03:01:11.916Z,5.67
2023-05-12T03:03:40.420Z,6.03
2023-05-12T03:06:07.751Z,5.93
2023-05-12T03:08:34.779Z,6.10
2023-05-12T03:11:01.543Z,6.33
2023-05-12T03:13:28.037Z,6.07
2023-05-12T03:15:55.621Z,6.30
2023-05-12T03:18:22.260Z,6.07
2023-05-12T03:20:49.999Z,6.03
2023-05-12T03:23:16.896Z,5.93
2023-05-12T03:25:43.834Z,6.23
2023-05-12T03:28:10.589Z,6.77
2023-05-12T03:30:37.145Z,5.77
2023-05-12T03:33:03.888Z,5.73
2023-05-12T03:35:31.033Z,5.77
2023-05-12T03:38:01.625Z,6.23
2023-05-12T03:40:28.348Z,6.70
2023-05-12T03:42:54.827Z,6.30
2023-05-12T03:45:21.414Z,6.90
2023-05-12T03:47:48.520Z,6.07
2023-05-12T03:50:15.191Z,6.27
2023-05-12T03:52:41.712Z,6.77
2023-05-12T03:55:09.092Z,6.27
2023-05-12T03:57:37.585Z,6.17
2023-05-12T04:00:07.799Z,5.97
2023-05-12T04:02:43.460Z,6.57
2023-05-12T04:05:10.273Z,6.03
2023-05-12T04:07:36.898Z,6.60
2023-05-12T04:10:03.899Z,6.77
2023-05-12T04:12:30.400Z,6.33
2023-05-12T04:14:57.435Z,6.43
2023-05-12T04:17:24.397Z,6.50
2023-05-12T04:19:53.388Z,7.00
2023-05-12T04:22:19.891Z,7.17
2023-05-12T04:24:46.430Z,6.60
2023-05-12T04:27:12.955Z,6.40
2023-05-12T04:29:39.684Z,7.07
2023-05-12T04:32:06.589Z,6.63
2023-05-12T04:34:34.506Z,6.90
2023-05-12T04:37:01.095Z,7.13
2023-05-12T04:39:28.248Z,7.40
2023-05-12T04:41:54.769Z,6.93
2023-05-12T04:44:22.319Z,6.97
2023-05-12T04:46:53.270Z,7.83
2023-05-12T04:49:20.014Z,7.13
2023-05-12T04:51:47.779Z,7.30
2023-05-12T04:54:14.274Z,7.93
2023-05-12T04:56:40.947Z,7.20
2023-05-12T04:59:07.741Z,6.93
2023-05-12T05:01:34.433Z,7.23
2023-05-12T05:04:01.330Z,7.70
2023-05-12T05:06:28.329Z,7.70
2023-05-12T05:08:55.870Z,7.87
2023-05-12T05:11:23.112Z,7.03
2023-05-12T05:13:49.706Z,7.97
2023-05-12T05:16:17.527Z,6.97
2023-05-12T05:18:46.638Z,7.27
2023-05-12T05:21:16.595Z,7.37
2023-05-12T05:23:43.398Z,7.27
2023-05-12T05:26:10.404Z,7.73
2023-05-12T05:28:39.780Z,7.80
2023-05-12T05:31:07.424Z,7.47
2023-05-12T05:33:34.625Z,7.30
2023-05-12T05:36:01.916Z,6.97
2023-05-12T05:38:28.762Z,8.00
2023-05-12T05:40:55.217Z,7.67
2023-05-12T05:43:23.357Z,7.83
2023-05-12T05:45:50.417Z,8.30
2023-05-12T05:48:18.174Z,8.07
2023-05-12T05:50:46.636Z,7.43
2023-05-12T05:53:13.195Z,8.13
2023-05-12T05:55:40.253Z,8.50
2023-05-12T05:58:06.831Z,8.37
2023-05-12T06:00:33.533Z,8.17
2023-05-12T06:03:00.142Z,8.77
2023-05-12T06:05:26.742Z,8.43
2023-05-12T06:07:53.528Z,7.17
2023-05-12T06:10:20.283Z,7.97
2023-05-12T06:12:47.933Z,7.63
2023-05-12T06:15:14.461Z,8.73
2023-05-12T06:17:41.228Z,61.07
2023-05-12T06:20:08.930Z,28.03
2023-05-12T06:22:35.495Z,10.40
2023-05-12T06:25:03.780Z,7.53
2023-05-12T06:27:31.415Z,7.47
2023-05-12T06:29:57.885Z,6.93
2023-05-12T06:32:24.345Z,8.10
2023-05-12T06:34:50.878Z,6.43
2023-05-12T06:37:17.379Z,5.67
2023-05-12T06:39:43.869Z,5.70
2023-05-12T06:42:11.463Z,5.23
2023-05-12T06:44:42.507Z,5.27
2023-05-12T06:47:09.239Z,5.73
2023-05-12T06:49:37.127Z,5.53
2023-05-12T06:52:05.211Z,5.43
2023-05-12T06:54:31.672Z,4.97
2023-05-12T06:56:58.500Z,5.40
2023-05-12T06:59:25.108Z,6.43
2023-05-12T07:01:51.636Z,5.20
2023-05-12T07:04:18.167Z,6.57
2023-05-12T07:06:44.631Z,5.90
2023-05-12T07:09:11.167Z,5.27
2023-05-12T07:11:37.679Z,5.47
2023-05-12T07:14:04.173Z,5.77
2023-05-12T07:16:30.819Z,5.60
2023-05-12T07:18:57.424Z,5.70
2023-05-12T07:21:24.452Z,5.43
2023-05-12T07:23:59.888Z,6.23
2023-05-12T07:26:28.657Z,6.03
2023-05-12T07:28:55.283Z,5.73
2023-05-12T07:31:22.031Z,6.43
2023-05-12T07:33:48.734Z,6.90
2023-05-12T07:36:15.246Z,7.17
2023-05-12T07:38:42.212Z,7.00
2023-05-12T07:41:08.692Z,6.83
2023-05-12T07:43:35.145Z,6.40
2023-05-12T07:46:02.386Z,6.23
2023-05-12T07:48:30.541Z,6.30
2023-05-12T07:50:57.400Z,6.20
2023-05-12T07:53:23.860Z,6.03
2023-05-12T07:55:50.374Z,7.00
2023-05-12T07:58:16.842Z,7.27
2023-05-12T08:00:44.698Z,11.10
2023-05-12T08:03:11.233Z,16.70
2023-05-12T08:05:37.732Z,20.07
2023-05-12T08:08:04.304Z,21.63
2023-05-12T08:10:32.593Z,60.10
2023-05-12T08:12:59.044Z,25.20
2023-05-12T08:15:25.571Z,14.70
2023-05-12T08:17:52.055Z,7.90
2023-05-12T08:20:18.783Z,6.53
2023-05-12T08:22:47.743Z,5.93
2023-05-12T08:25:14.643Z,6.13
2023-05-12T08:27:41.180Z,6.03
2023-05-12T08:30:08.791Z,6.97
2023-05-12T08:32:35.818Z,8.90
2023-05-12T08:35:02.371Z,7.10
2023-05-12T08:37:29.119Z,7.60
2023-05-12T08:39:55.733Z,7.87
2023-05-12T08:42:42.529Z,7.00
2023-05-12T08:45:11.138Z,4.97
2023-05-12T08:47:38.168Z,5.30
2023-05-12T08:50:05.565Z,6.43
2023-05-12T08:52:34.129Z,4.60
2023-05-12T08:55:03.282Z,5.60
2023-05-12T08:57:31.241Z,4.70
2023-05-12T08:59:59.441Z,4.60
2023-05-12T09:02:35.219Z,6.43
2023-05-12T09:05:08.837Z,6.60
2023-05-12T09:07:38.574Z,5.20
2023-05-12T09:10:07.529Z,5.10
2023-05-12T09:12:36.591Z,3.57
2023-05-12T09:15:05.549Z,4.27
2023-05-12T09:17:32.104Z,3.50
2023-05-12T09:19:58.624Z,3.30
2023-05-12T09:22:33.510Z,3.53
2023-05-12T09:24:59.952Z,3.93
2023-05-12T09:27:28.001Z,3.10
2023-05-12T09:29:59.654Z,3.73
2023-05-12T09:32:31.878Z,4.20
2023-05-12T09:35:11.067Z,3.20
2023-05-12T09:37:38.385Z,3.20
2023-05-12T09:40:07.401Z,2.80
2023-05-12T09:42:35.639Z,2.77
2023-05-12T09:45:03.858Z,2.97
2023-05-12T09:47:38.004Z,2.57
2023-05-12T09:50:06.512Z,2.67
2023-05-12T09:52:37.741Z,2.13
2023-05-12T09:55:11.990Z,1.63
2023-05-12T09:57:44.281Z,1.73
2023-05-12T10:00:34.571Z,1.70
2023-05-12T10:03:15.824Z,1.50
2023-05-12T10:06:05.028Z,1.10
2023-05-12T10:08:58.745Z,1.10
2023-05-12T10:11:25.839Z,1.40
2023-05-12T10:13:53.886Z,1.37
2023-05-12T10:16:21.689Z,1.40
2023-05-12T10:18:48.842Z,1.60
2023-05-12T10:21:16.027Z,1.50
2023-05-12T10:23:44.354Z,1.60
2023-05-12T10:26:11.374Z,1.60
2023-05-12T10:28:38.200Z,1.97
2023-05-12T10:31:07.547Z,1.60
2023-05-12T10:33:34.220Z,1.83
2023-05-12T10:36:00.866Z,2.00
2023-05-12T10:38:36.091Z,2.27
2023-05-12T10:41:05.699Z,2.40
2023-05-12T10:43:42.050Z,2.13
2023-05-12T10:46:20.834Z,2.23
2023-05-12T10:48:54.111Z,3.30
2023-05-12T10:51:28.251Z,3.80
2023-05-12T10:54:01.134Z,3.70
2023-05-12T10:56:49.834Z,5.50
2023-05-12T10:59:20.943Z,6.10
2023-05-12T11:02:05.101Z,10.23
2023-05-12T11:04:40.506Z,16.83
2023-05-12T11:07:09.773Z,10.90
2023-05-12T11:09:43.431Z,15.23
2023-05-12T11:12:20.456Z,9.70
2023-05-12T11:14:47.499Z,10.17
2023-05-12T11:17:14.944Z,14.53
2023-05-12T11:19:45.851Z,8.70
2023-05-12T11:22:12.912Z,8.30
2023-05-12T11:24:40.872Z,7.27
2023-05-12T11:27:12.456Z,7.13
2023-05-12T11:29:41.298Z,6.40
2023-05-12T11:32:14.760Z,6.93
2023-05-12T11:34:41.523Z,6.70
2023-05-12T11:37:08.070Z,7.20
2023-05-12T11:39:36.107Z,6.43
2023-05-12T11:42:13.529Z,6.80
2023-05-12T11:44:48.222Z,6.13
2023-05-12T11:47:16.280Z,6.30
2023-05-12T11:49:50.289Z,5.70
2023-05-12T11:52:17.824Z,5.90
2023-05-12T11:54:58.503Z,6.10
2023-05-12T11:57:30.290Z,5.90
2023-05-12T12:00:02.061Z,5.20
2023-05-12T12:02:33.464Z,5.47
2023-05-12T12:05:00.709Z,5.57
2023-05-12T12:07:35.708Z,5.50
2023-05-12T12:10:16.861Z,5.53
2023-05-12T12:12:44.408Z,5.30
2023-05-12T12:15:12.323Z,5.00
2023-05-12T12:17:39.663Z,4.40
2023-05-12T12:20:07.823Z,4.87
2023-05-12T12:22:34.621Z,4.80
2023-05-12T12:25:02.445Z,5.03
2023-05-12T12:27:28.958Z,4.47
2023-05-12T12:29:55.563Z,5.30
2023-05-12T12:32:22.169Z,5.17
2023-05-12T12:34:49.178Z,4.90
2023-05-12T12:37:16.160Z,5.17
2023-05-12T12:39:42.801Z,5.07
2023-05-12T12:42:09.477Z,5.00
2023-05-12T12:44:36.004Z,4.77
2023-05-12T12:47:02.507Z,4.80
2023-05-12T12:49:28.992Z,4.93
2023-05-12T12:51:55.951Z,5.17
2023-05-12T12:54:22.658Z,5.00
2023-05-12T12:56:49.219Z,5.00
2023-05-12T12:59:15.699Z,4.60
2023-05-12T13:01:42.869Z,4.57
2023-05-12T13:04:09.498Z,5.47
2023-05-12T13:09:39.072Z,4.83
2023-05-12T13:12:05.869Z,5.30
2023-05-12T13:14:32.357Z,4.97
2023-05-12T13:16:58.869Z,4.63
2023-05-12T13:19:25.372Z,5.20
2023-05-12T13:21:51.782Z,4.97
2023-05-12T13:24:18.255Z,5.10
2023-05-12T13:26:44.775Z,5.03
2023-05-12T13:29:11.494Z,5.40
2023-05-12T13:31:38.659Z,5.33
2023-05-12T13:34:05.140Z,4.63
2023-05-12T13:36:34.433Z,4.87
2023-05-12T13:39:01.736Z,5.37
2023-05-12T13:41:28.137Z,5.40
2023-05-12T13:43:54.579Z,5.00
2023-05-12T13:46:21.007Z,5.13
2023-05-12T13:48:47.928Z,5.57
2023-05-12T13:51:14.743Z,5.30
2023-05-12T13:53:42.923Z,5.03
2023-05-12T13:56:16.512Z,5.20
2023-05-12T13:58:43.615Z,5.60
2023-05-12T14:01:10.919Z,6.37
2023-05-12T14:03:37.726Z,5.73
2023-05-12T14:06:04.989Z,5.20
2023-05-12T14:08:31.412Z,4.53
2023-05-12T14:10:57.956Z,4.67
2023-05-12T14:13:25.647Z,5.17
2023-05-12T14:15:53.451Z,4.97
2023-05-12T14:18:20.332Z,5.27
2023-05-12T14:20:47.231Z,4.93
2023-05-12T14:23:13.690Z,5.30
2023-05-12T14:25:40.177Z,5.17
2023-05-12T14:28:06.610Z,4.87
2023-05-12T14:30:35.187Z,5.23
2023-05-12T14:33:02.612Z,5.03
2023-05-12T14:35:29.468Z,4.90
2023-05-12T14:37:56.736Z,4.93
2023-05-12T14:40:23.753Z,5.50
2023-05-12T14:42:50.302Z,5.70
2023-05-12T14:45:16.879Z,4.90
2023-05-12T14:47:43.410Z,5.20
2023-05-12T14:50:10.569Z,4.93
2023-05-12T14:52:38.487Z,5.20
2023-05-12T14:55:12.393Z,4.80
2023-05-12T14:57:39.561Z,5.60
2023-05-12T15:00:11.527Z,5.97
2023-05-12T15:02:39.285Z,5.13
2023-05-12T15:05:07.186Z,4.47
2023-05-12T15:07:33.625Z,4.47
2023-05-12T15:10:00.759Z,4.03
2023-05-12T15:12:27.315Z,3.70
2023-05-12T15:14:53.815Z,3.80
2023-05-12T15:17:20.295Z,3.40
2023-05-12T15:19:46.771Z,3.53
2023-05-12T15:22:13.668Z,3.23
2023-05-12T15:24:40.073Z,3.27
2023-05-12T15:27:07.093Z,3.20
2023-05-12T15:29:37.798Z,3.17
2023-05-12T15:32:04.893Z,2.60
2023-05-12T15:34:32.185Z,3.03
2023-05-12T15:36:58.655Z,2.80
2023-05-12T15:39:25.054Z,3.33
2023-05-12T15:41:51.568Z,3.20
2023-05-12T15:44:18.148Z,3.10
2023-05-12T15:46:44.766Z,2.90
2023-05-12T15:49:11.190Z,2.70
2023-05-12T15:51:37.938Z,3.10
2023-05-12T15:54:07.031Z,3.97
2023-05-12T15:56:34.994Z,3.30
2023-05-12T15:59:01.409Z,3.20
2023-05-12T16:01:27.940Z,2.83
2023-05-12T16:03:54.502Z,2.13
2023-05-12T16:06:21.980Z,2.33
2023-05-12T16:08:48.620Z,2.33
2023-05-12T16:11:15.043Z,2.10
2023-05-12T16:13:41.718Z,2.00
2023-05-12T16:16:08.261Z,2.00
2023-05-12T16:18:35.028Z,3.80
2023-05-12T16:21:05.159Z,2.77
2023-05-12T16:23:31.628Z,2.53
2023-05-12T16:25:59.206Z,3.57
2023-05-12T16:28:25.588Z,2.90
2023-05-12T16:30:51.991Z,2.50
2023-05-12T16:33:18.411Z,2.43
2023-05-12T16:35:44.827Z,5.17
2023-05-12T16:38:11.223Z,2.37
2023-05-12T16:40:37.620Z,2.50
2023-05-12T16:43:05.491Z,2.53
2023-05-12T16:45:31.926Z,1.37
2023-05-12T16:47:58.394Z,1.70
2023-05-12T16:50:24.804Z,1.90
2023-05-12T16:52:52.062Z,1.40
2023-05-12T16:55:18.871Z,1.00
2023-05-12T16:57:45.607Z,2.43
2023-05-12T17:00:12.731Z,0.93
2023-05-12T17:02:39.272Z,0.67
2023-05-12T17:05:06.133Z,0.80
2023-05-12T17:07:35.052Z,0.90
2023-05-12T17:10:01.812Z,0.63
2023-05-12T17:12:28.246Z,0.87
2023-05-12T17:15:03.852Z,0.70
2023-05-12T17:17:34.527Z,0.90
2023-05-12T17:20:01.134Z,38.67
2023-05-12T17:22:27.944Z,17.10
2023-05-12T17:24:54.442Z,1.43
2023-05-12T17:27:20.883Z,4.30
2023-05-12T17:29:47.286Z,3.40
2023-05-12T17:32:13.697Z,5.17
2023-05-12T17:34:40.131Z,5.70
2023-05-12T17:37:06.548Z,1.10
2023-05-12T17:39:34.141Z,1.20
2023-05-12T17:42:00.534Z,2.17
2023-05-12T17:44:27.023Z,1.60
2023-05-12T17:46:53.720Z,1.33
2023-05-12T17:49:20.160Z,1.40
2023-05-12T17:51:46.876Z,1.20
2023-05-12T17:54:13.430Z,1.10
2023-05-12T17:56:39.915Z,1.60
2023-05-12T17:59:06.874Z,1.13
2023-05-12T18:01:33.361Z,1.30
2023-05-12T18:03:59.782Z,1.50
2023-05-12T18:06:26.232Z,1.50
2023-05-12T18:08:53.105Z,1.03
2023-05-12T18:11:19.812Z,1.53
2023-05-12T18:13:46.331Z,3.17
2023-05-12T18:16:25.043Z,1.47
2023-05-12T18:18:54.660Z,1.20
2023-05-12T18:21:21.104Z,1.10
2023-05-12T18:23:47.501Z,1.20
2023-05-12T18:26:13.912Z,1.20
2023-05-12T18:28:40.612Z,1.30
2023-05-12T18:31:16.061Z,1.30
2023-05-12T18:33:45.714Z,1.40
2023-05-12T18:36:12.435Z,1.60
2023-05-12T18:38:38.856Z,1.37
2023-05-12T18:41:05.352Z,1.27
2023-05-12T18:43:31.827Z,1.03
2023-05-12T18:45:58.373Z,1.20
2023-05-12T18:48:25.286Z,1.30
2023-05-12T18:50:51.726Z,1.20
2023-05-12T18:53:18.265Z,1.20
2023-05-12T18:55:44.796Z,1.10
2023-05-12T18:58:11.268Z,1.10
2023-05-12T19:00:37.750Z,1.50
2023-05-12T19:03:04.465Z,1.13
2023-05-12T19:05:31.031Z,1.50
2023-05-12T19:07:57.500Z,1.00
2023-05-12T19:10:23.977Z,1.30
2023-05-12T19:12:51.050Z,1.00
2023-05-12T19:15:17.886Z,1.20
2023-05-12T19:17:44.517Z,1.30
2023-05-12T19:20:11.289Z,1.00
2023-05-12T19:22:37.947Z,0.90
2023-05-12T19:25:05.950Z,1.10
2023-05-12T19:27:32.578Z,0.90
2023-05-12T19:29:59.191Z,0.90
2023-05-12T19:32:25.709Z,1.00
2023-05-12T19:34:52.265Z,0.90
2023-05-12T19:37:19.404Z,1.07
2023-05-12T19:39:46.239Z,1.03
2023-05-12T19:42:12.726Z,0.80
2023-05-12T19:44:39.182Z,1.17
2023-05-12T19:47:05.815Z,1.10
2023-05-12T19:49:34.275Z,1.20
2023-05-12T19:52:01.647Z,1.10
2023-05-12T19:54:28.168Z,1.00
2023-05-12T19:56:54.743Z,1.27
2023-05-12T19:59:21.266Z,0.90
2023-05-12T20:01:49.196Z,0.93
2023-05-12T20:04:16.057Z,1.03
2023-05-12T20:06:42.941Z,1.00
2023-05-12T20:09:10.111Z,1.20
2023-05-12T20:11:36.549Z,1.17
2023-05-12T20:14:03.012Z,0.80
2023-05-12T20:16:29.633Z,1.10
2023-05-12T20:18:56.773Z,0.90
2023-05-12T20:21:23.197Z,1.00
2023-05-12T20:23:49.628Z,1.00
2023-05-12T20:26:16.063Z,0.83
2023-05-12T20:28:42.493Z,0.90
2023-05-12T20:31:10.091Z,0.80
2023-05-12T20:33:36.569Z,0.90
2023-05-12T20:36:03.142Z,1.00
2023-05-12T20:38:29.640Z,0.90
2023-05-12T20:40:56.121Z,1.27
2023-05-12T20:43:22.654Z,1.37
2023-05-12T20:45:49.238Z,0.90
2023-05-12T20:48:15.718Z,1.00
2023-05-12T20:50:43.077Z,1.20
2023-05-12T20:53:09.485Z,0.87
2023-05-12T20:55:36.209Z,1.00
2023-05-12T20:58:02.811Z,0.77
2023-05-12T21:00:29.408Z,0.70
2023-05-12T21:02:56.155Z,0.90
2023-05-12T21:05:22.930Z,0.80
2023-05-12T21:07:49.679Z,0.90
2023-05-12T21:10:16.240Z,0.90
2023-05-12T21:12:43.702Z,1.10
2023-05-12T21:15:10.754Z,1.00
2023-05-12T21:17:39.379Z,0.90
2023-05-12T21:20:10.928Z,0.87
2023-05-12T21:22:38.509Z,0.80
2023-05-12T21:25:05.408Z,0.70
2023-05-12T21:27:31.949Z,0.90
2023-05-12T21:29:58.588Z,0.83
2023-05-12T21:32:25.275Z,0.90
2023-05-12T21:34:51.791Z,0.90
2023-05-12T21:37:18.368Z,0.90
2023-05-12T21:39:44.875Z,0.90
2023-05-12T21:42:11.405Z,1.00
2023-05-12T21:44:37.903Z,0.90
2023-05-12T21:47:04.681Z,0.93
2023-05-12T21:49:31.262Z,1.00
2023-05-12T21:51:57.713Z,0.87
2023-05-12T21:54:24.327Z,1.10
2023-05-12T21:56:50.942Z,1.13
2023-05-12T21:59:17.580Z,1.27
2023-05-12T22:01:44.153Z,1.30
2023-05-12T22:04:10.763Z,1.30
2023-05-12T22:06:37.362Z,1.13
2023-05-12T22:09:04.864Z,1.10
2023-05-12T22:11:31.379Z,1.10
2023-05-12T22:13:57.847Z,1.40
2023-05-12T22:16:31.114Z,1.20
2023-05-12T22:19:01.153Z,1.20
2023-05-12T22:21:27.645Z,1.47
2023-05-12T22:23:54.108Z,1.10
2023-05-12T22:26:20.614Z,1.10
2023-05-12T22:28:47.111Z,1.20
2023-05-12T22:31:13.628Z,1.40
2023-05-12T22:33:40.214Z,1.40
2023-05-12T22:36:07.435Z,1.30
2023-05-12T22:38:33.903Z,1.40
2023-05-12T22:41:00.353Z,1.30
2023-05-12T22:43:26.887Z,1.50
2023-05-12T22:45:55.623Z,1.40
2023-05-12T22:48:22.820Z,1.30
2023-05-12T22:50:49.313Z,1.63
2023-05-12T22:53:15.862Z,1.50
2023-05-12T22:55:56.955Z,1.60
2023-05-12T22:58:24.031Z,1.57
2023-05-12T23:00:50.614Z,1.30
2023-05-12T23:03:17.068Z,1.50
2023-05-12T23:05:43.634Z,1.60
2023-05-12T23:08:10.105Z,1.60
2023-05-12T23:10:36.605Z,1.43
2023-05-12T23:13:03.051Z,1.93
2023-05-12T23:15:29.573Z,1.70
2023-05-12T23:17:56.102Z,1.60
2023-05-12T23:20:23.039Z,1.60
2023-05-12T23:22:49.677Z,1.90
2023-05-12T23:25:16.304Z,1.80
2023-05-12T23:27:42.727Z,1.83
2023-05-12T23:30:09.365Z,1.87
2023-05-12T23:32:36.124Z,2.27
2023-05-12T23:35:02.737Z,1.70
2023-05-12T23:37:29.224Z,2.03
2023-05-12T23:39:55.671Z,2.13
2023-05-12T23:42:22.119Z,1.77
2023-05-12T23:44:48.546Z,1.97
2023-05-12T23:47:14.973Z,1.93
2023-05-12T23:49:41.493Z,1.80
2023-05-12T23:52:08.365Z,2.00
2023-05-12T23:54:34.821Z,2.10
2023-05-12T23:57:01.288Z,2.27
2023-05-12T23:59:27.972Z,1.77
